CES4977 ZSPD-ZGSZ
Flight info
| Callsign | CES4977 |
|---|---|
| Flight time | 2h 8m |
| Altitude | 32100 |
| Route | NXD81D NXD W131 AKDIM A470 BEBEM R200 GUBLO |
| Aircraft | A320/M-SDE3FGHIRWY/LB1 |
Departure
| Time | 2026-04-11 05:01 |
|---|---|
| Airport | Shanghai Pudong International Airport (ZSPD) |
Arrival
| Time | 2026-04-11 07:09 |
|---|---|
| Airport | Shenzhen Bao'an International Airport (ZGSZ) |
| Time | Latitude | Longitude | Altitude | Speed | Heading |
|---|---|---|---|---|---|
| 2026-04-11 04:40 | 31.14969 | 121.80688 | 23 ft | 0 kts | 72° |
| 2026-04-11 04:43 | 31.14967 | 121.80680 | 23 ft | 3 kts | 73° |
| 2026-04-11 04:43 | 31.14962 | 121.80658 | 52 ft | 3 kts | 79° |
| 2026-04-11 04:44 | 31.14959 | 121.80634 | 18 ft | 3 kts | 91° |
| 2026-04-11 04:44 | 31.14961 | 121.80612 | 25 ft | 3 kts | 116° |
| 2026-04-11 04:44 | 31.14970 | 121.80598 | 23 ft | 1 kts | 160° |
| 2026-04-11 04:44 | 31.14972 | 121.80597 | 23 ft | 2 kts | 162° |
| 2026-04-11 04:46 | 31.14968 | 121.80598 | 23 ft | 3 kts | 162° |
| 2026-04-11 04:47 | 31.14930 | 121.80612 | 23 ft | 8 kts | 162° |
| 2026-04-11 04:47 | 31.14859 | 121.80639 | 23 ft | 12 kts | 162° |
| 2026-04-11 04:47 | 31.14774 | 121.80666 | 23 ft | 13 kts | 180° |
| 2026-04-11 04:47 | 31.14677 | 121.80659 | 23 ft | 15 kts | 183° |
| 2026-04-11 04:48 | 31.14575 | 121.80677 | 24 ft | 16 kts | 160° |
| 2026-04-11 04:48 | 31.14468 | 121.80718 | 23 ft | 17 kts | 162° |
| 2026-04-11 04:48 | 31.14393 | 121.80653 | 23 ft | 15 kts | 252° |
| 2026-04-11 04:48 | 31.14362 | 121.80544 | 24 ft | 13 kts | 252° |
| 2026-04-11 04:49 | 31.14336 | 121.80450 | 23 ft | 11 kts | 252° |
| 2026-04-11 04:49 | 31.14313 | 121.80368 | 23 ft | 10 kts | 252° |
| 2026-04-11 04:49 | 31.14292 | 121.80292 | 23 ft | 10 kts | 252° |
| 2026-04-11 04:49 | 31.14272 | 121.80221 | 23 ft | 8 kts | 252° |
| 2026-04-11 04:50 | 31.14256 | 121.80162 | 23 ft | 8 kts | 252° |
| 2026-04-11 04:50 | 31.14232 | 121.80074 | 23 ft | 15 kts | 252° |
| 2026-04-11 04:50 | 31.14192 | 121.79932 | 23 ft | 22 kts | 252° |
| 2026-04-11 04:50 | 31.14141 | 121.79750 | 23 ft | 22 kts | 252° |
| 2026-04-11 04:51 | 31.14124 | 121.79601 | 23 ft | 16 kts | 279° |
| 2026-04-11 04:51 | 31.14204 | 121.79543 | 23 ft | 13 kts | 342° |
| 2026-04-11 04:51 | 31.14295 | 121.79509 | 23 ft | 16 kts | 342° |
| 2026-04-11 04:51 | 31.14416 | 121.79463 | 23 ft | 21 kts | 342° |
| 2026-04-11 04:52 | 31.14567 | 121.79407 | 23 ft | 24 kts | 342° |
| 2026-04-11 04:52 | 31.14690 | 121.79359 | 23 ft | 24 kts | 342° |
| 2026-04-11 04:54 | 31.14732 | 121.79344 | 23 ft | 24 kts | 342° |
| 2026-04-11 04:54 | 31.14889 | 121.79284 | 23 ft | 22 kts | 342° |
| 2026-04-11 04:55 | 31.15032 | 121.79231 | 23 ft | 20 kts | 342° |
| 2026-04-11 04:55 | 31.15160 | 121.79182 | 24 ft | 18 kts | 342° |
| 2026-04-11 04:55 | 31.15274 | 121.79139 | 23 ft | 16 kts | 342° |
| 2026-04-11 04:55 | 31.15375 | 121.79101 | 22 ft | 14 kts | 342° |
| 2026-04-11 04:56 | 31.15464 | 121.79067 | 22 ft | 13 kts | 342° |
| 2026-04-11 04:56 | 31.15544 | 121.79037 | 22 ft | 11 kts | 342° |
| 2026-04-11 04:56 | 31.15614 | 121.79011 | 22 ft | 10 kts | 342° |
| 2026-04-11 04:56 | 31.15674 | 121.78988 | 22 ft | 8 kts | 342° |
| 2026-04-11 04:57 | 31.15751 | 121.78959 | 22 ft | 17 kts | 342° |
| 2026-04-11 04:57 | 31.15888 | 121.78908 | 23 ft | 21 kts | 342° |
| 2026-04-11 04:57 | 31.16016 | 121.78859 | 23 ft | 18 kts | 343° |
| 2026-04-11 04:57 | 31.16103 | 121.78826 | 23 ft | 0 kts | 342° |
| 2026-04-11 04:58 | 31.16129 | 121.78816 | 23 ft | 8 kts | 341° |
| 2026-04-11 04:59 | 31.16146 | 121.78740 | 23 ft | 12 kts | 250° |
| 2026-04-11 04:59 | 31.16135 | 121.78706 | 25 ft | 0 kts | 250° |
| 2026-04-11 04:59 | 31.16134 | 121.78702 | 24 ft | 2 kts | 250° |
| 2026-04-11 04:59 | 31.16126 | 121.78674 | 23 ft | 7 kts | 250° |
| 2026-04-11 05:00 | 31.16085 | 121.78610 | 22 ft | 13 kts | 194° |
| 2026-04-11 05:00 | 31.15970 | 121.78657 | 23 ft | 43 kts | 162° |
| 2026-04-11 05:00 | 31.15464 | 121.78849 | 23 ft | 107 kts | 162° |
| 2026-04-11 05:00 | 31.14908 | 121.79059 | 28 ft | 141 kts | 162° |
| 2026-04-11 05:01 | 31.13851 | 121.79454 | 209 ft | 166 kts | 161° |
| 2026-04-11 05:01 | 31.12770 | 121.79829 | 966 ft | 166 kts | 164° |
| 2026-04-11 05:01 | 31.11631 | 121.80223 | 1419 ft | 179 kts | 166° |
| 2026-04-11 05:01 | 31.10359 | 121.80656 | 1699 ft | 202 kts | 165° |
| 2026-04-11 05:02 | 31.08929 | 121.81143 | 2016 ft | 227 kts | 165° |
| 2026-04-11 05:02 | 31.07333 | 121.81684 | 2445 ft | 250 kts | 166° |
| 2026-04-11 05:02 | 31.05602 | 121.82271 | 3067 ft | 264 kts | 166° |
| 2026-04-11 05:02 | 31.03820 | 121.82874 | 3861 ft | 271 kts | 167° |
| 2026-04-11 05:03 | 31.01982 | 121.83484 | 4613 ft | 278 kts | 171° |
| 2026-04-11 05:03 | 31.00074 | 121.83460 | 5290 ft | 275 kts | 204° |
| 2026-04-11 05:03 | 30.98511 | 121.82262 | 5781 ft | 270 kts | 236° |
| 2026-04-11 05:03 | 30.97645 | 121.80375 | 5915 ft | 262 kts | 256° |
| 2026-04-11 05:04 | 30.97188 | 121.78332 | 5921 ft | 260 kts | 262° |
| 2026-04-11 05:04 | 30.96839 | 121.76269 | 5920 ft | 259 kts | 262° |
| 2026-04-11 05:04 | 30.96471 | 121.74212 | 5923 ft | 260 kts | 261° |
| 2026-04-11 05:04 | 30.96205 | 121.72145 | 5930 ft | 257 kts | 273° |
| 2026-04-11 05:05 | 30.96906 | 121.68052 | 7067 ft | 259 kts | 284° |
| 2026-04-11 05:05 | 30.97296 | 121.65995 | 7868 ft | 262 kts | 283° |
| 2026-04-11 05:05 | 30.97674 | 121.63901 | 8632 ft | 266 kts | 282° |
| 2026-04-11 05:06 | 30.98051 | 121.61781 | 9400 ft | 269 kts | 282° |
| 2026-04-11 05:06 | 30.98434 | 121.59629 | 10142 ft | 273 kts | 281° |
| 2026-04-11 05:06 | 30.98834 | 121.57396 | 10483 ft | 292 kts | 281° |
| 2026-04-11 05:06 | 30.99270 | 121.54983 | 10667 ft | 315 kts | 281° |
| 2026-04-11 05:07 | 30.99740 | 121.52394 | 10806 ft | 338 kts | 281° |
| 2026-04-11 05:07 | 31.00244 | 121.49630 | 10929 ft | 359 kts | 282° |
| 2026-04-11 05:07 | 31.00774 | 121.46734 | 11276 ft | 370 kts | 282° |
| 2026-04-11 05:07 | 31.01320 | 121.43779 | 11841 ft | 375 kts | 282° |
| 2026-04-11 05:08 | 31.01863 | 121.40834 | 12437 ft | 378 kts | 281° |
| 2026-04-11 05:08 | 31.02418 | 121.37825 | 13028 ft | 382 kts | 281° |
| 2026-04-11 05:08 | 31.02977 | 121.34788 | 13588 ft | 385 kts | 281° |
| 2026-04-11 05:08 | 31.03539 | 121.31726 | 14102 ft | 388 kts | 281° |
| 2026-04-11 05:09 | 31.04105 | 121.28639 | 14613 ft | 390 kts | 281° |
| 2026-04-11 05:09 | 31.04674 | 121.25539 | 15144 ft | 392 kts | 281° |
| 2026-04-11 05:09 | 31.05243 | 121.22426 | 15659 ft | 393 kts | 281° |
| 2026-04-11 05:09 | 31.05813 | 121.19297 | 16157 ft | 396 kts | 281° |
| 2026-04-11 05:10 | 31.06363 | 121.16146 | 16634 ft | 397 kts | 278° |
| 2026-04-11 05:10 | 31.06555 | 121.12932 | 17132 ft | 398 kts | 268° |
| 2026-04-11 05:10 | 31.06262 | 121.09719 | 17596 ft | 400 kts | 259° |
| 2026-04-11 05:10 | 31.05545 | 121.06567 | 18060 ft | 403 kts | 255° |
| 2026-04-11 05:11 | 31.04766 | 121.03428 | 18484 ft | 405 kts | 255° |
| 2026-04-11 05:11 | 31.03983 | 121.00266 | 18900 ft | 406 kts | 255° |
| 2026-04-11 05:11 | 31.03202 | 120.97107 | 19323 ft | 406 kts | 255° |
| 2026-04-11 05:11 | 31.02418 | 120.93940 | 19744 ft | 407 kts | 255° |
| 2026-04-11 05:12 | 31.01632 | 120.90771 | 20158 ft | 408 kts | 255° |
| 2026-04-11 05:12 | 31.00841 | 120.87591 | 20559 ft | 408 kts | 255° |
| 2026-04-11 05:12 | 31.00048 | 120.84407 | 20957 ft | 409 kts | 255° |
| 2026-04-11 05:12 | 30.99255 | 120.81221 | 21345 ft | 410 kts | 255° |
| 2026-04-11 05:13 | 30.98459 | 120.78028 | 21729 ft | 411 kts | 255° |
| 2026-04-11 05:13 | 30.97660 | 120.74830 | 22111 ft | 412 kts | 255° |
| 2026-04-11 05:13 | 30.96856 | 120.71624 | 22479 ft | 413 kts | 255° |
| 2026-04-11 05:13 | 30.96052 | 120.68413 | 22838 ft | 413 kts | 255° |
| 2026-04-11 05:14 | 30.95248 | 120.65195 | 23191 ft | 414 kts | 255° |
| 2026-04-11 05:14 | 30.94444 | 120.61971 | 23535 ft | 415 kts | 255° |
| 2026-04-11 05:14 | 30.93635 | 120.58747 | 23820 ft | 415 kts | 255° |
| 2026-04-11 05:14 | 30.92823 | 120.55518 | 24111 ft | 416 kts | 255° |
| 2026-04-11 05:15 | 30.92009 | 120.52282 | 24392 ft | 416 kts | 255° |
| 2026-04-11 05:15 | 30.91180 | 120.49049 | 24668 ft | 418 kts | 252° |
| 2026-04-11 05:15 | 30.90024 | 120.45934 | 24929 ft | 421 kts | 244° |
| 2026-04-11 05:15 | 30.88428 | 120.43070 | 25253 ft | 424 kts | 236° |
| 2026-04-11 05:16 | 30.86430 | 120.40535 | 25656 ft | 427 kts | 227° |
| 2026-04-11 05:16 | 30.84082 | 120.38392 | 26064 ft | 430 kts | 221° |
| 2026-04-11 05:16 | 30.81637 | 120.36396 | 26475 ft | 428 kts | 221° |
| 2026-04-11 05:16 | 30.79211 | 120.34410 | 26887 ft | 425 kts | 221° |
| 2026-04-11 05:17 | 30.76803 | 120.32431 | 27319 ft | 422 kts | 222° |
| 2026-04-11 05:17 | 30.74410 | 120.30464 | 27754 ft | 420 kts | 222° |
| 2026-04-11 05:17 | 30.72034 | 120.28510 | 28194 ft | 417 kts | 222° |
| 2026-04-11 05:17 | 30.69673 | 120.26564 | 28628 ft | 415 kts | 222° |
| 2026-04-11 05:18 | 30.67356 | 120.24652 | 29072 ft | 413 kts | 222° |
| 2026-04-11 05:18 | 30.65023 | 120.22735 | 29538 ft | 410 kts | 222° |
| 2026-04-11 05:18 | 30.62700 | 120.20831 | 30004 ft | 407 kts | 223° |
| 2026-04-11 05:18 | 30.60396 | 120.18944 | 30395 ft | 404 kts | 223° |
| 2026-04-11 05:19 | 30.58104 | 120.17068 | 30752 ft | 402 kts | 223° |
| 2026-04-11 05:19 | 30.55823 | 120.15202 | 31093 ft | 400 kts | 223° |
| 2026-04-11 05:19 | 30.53555 | 120.13347 | 31425 ft | 398 kts | 223° |
| 2026-04-11 05:19 | 30.51296 | 120.11503 | 31755 ft | 397 kts | 223° |
| 2026-04-11 05:20 | 30.49043 | 120.09665 | 31977 ft | 396 kts | 223° |
| 2026-04-11 05:20 | 30.46780 | 120.07817 | 32024 ft | 399 kts | 223° |
| 2026-04-11 05:20 | 30.42119 | 120.04228 | 32022 ft | 407 kts | 218° |
| 2026-04-11 05:21 | 30.37211 | 120.00964 | 32017 ft | 407 kts | 219° |
| 2026-04-11 05:21 | 30.32310 | 119.97699 | 32017 ft | 407 kts | 219° |
| 2026-04-11 05:22 | 30.27406 | 119.94422 | 32012 ft | 407 kts | 219° |
| 2026-04-11 05:22 | 30.22501 | 119.91152 | 32000 ft | 407 kts | 218° |
| 2026-04-11 05:23 | 30.17579 | 119.87893 | 31993 ft | 408 kts | 218° |
| 2026-04-11 05:23 | 30.12660 | 119.84633 | 31982 ft | 407 kts | 218° |
| 2026-04-11 05:24 | 30.07742 | 119.81376 | 31975 ft | 407 kts | 218° |
| 2026-04-11 05:24 | 30.02824 | 119.78117 | 31972 ft | 407 kts | 218° |
| 2026-04-11 05:25 | 29.97935 | 119.74828 | 31963 ft | 407 kts | 219° |
| 2026-04-11 05:25 | 29.93079 | 119.71548 | 31953 ft | 407 kts | 219° |
| 2026-04-11 05:26 | 29.88169 | 119.68274 | 31954 ft | 411 kts | 216° |
| 2026-04-11 05:26 | 29.85483 | 119.67009 | 31956 ft | 424 kts | 206° |
| 2026-04-11 05:26 | 29.82546 | 119.66328 | 31954 ft | 439 kts | 196° |
| 2026-04-11 05:27 | 29.76374 | 119.66004 | 31942 ft | 445 kts | 193° |
| 2026-04-11 05:27 | 29.70199 | 119.65627 | 31943 ft | 444 kts | 194° |
| 2026-04-11 05:28 | 29.64031 | 119.65170 | 31932 ft | 444 kts | 194° |
| 2026-04-11 05:28 | 29.57839 | 119.64822 | 31926 ft | 448 kts | 192° |
| 2026-04-11 05:29 | 29.51602 | 119.64670 | 31923 ft | 448 kts | 192° |
| 2026-04-11 05:29 | 29.45392 | 119.64358 | 31920 ft | 446 kts | 193° |
| 2026-04-11 05:30 | 29.39203 | 119.63929 | 31913 ft | 446 kts | 194° |
| 2026-04-11 05:30 | 29.32998 | 119.63505 | 31905 ft | 447 kts | 193° |
| 2026-04-11 05:31 | 29.26780 | 119.63124 | 31906 ft | 448 kts | 193° |
| 2026-04-11 05:31 | 29.20607 | 119.62763 | 31903 ft | 447 kts | 193° |
| 2026-04-11 05:32 | 29.14393 | 119.62390 | 31895 ft | 448 kts | 193° |
| 2026-04-11 05:32 | 29.08168 | 119.62010 | 31894 ft | 448 kts | 193° |
| 2026-04-11 05:33 | 29.01939 | 119.61627 | 31892 ft | 448 kts | 193° |
| 2026-04-11 05:33 | 28.95715 | 119.61240 | 31894 ft | 448 kts | 193° |
| 2026-04-11 05:34 | 28.89483 | 119.60840 | 31893 ft | 449 kts | 193° |
| 2026-04-11 05:34 | 28.83239 | 119.60451 | 31898 ft | 450 kts | 193° |
| 2026-04-11 05:35 | 28.76988 | 119.60065 | 31904 ft | 450 kts | 193° |
| 2026-04-11 05:35 | 28.70728 | 119.59677 | 31905 ft | 450 kts | 193° |
| 2026-04-11 05:36 | 28.64471 | 119.59291 | 31903 ft | 450 kts | 193° |
| 2026-04-11 05:36 | 28.58220 | 119.58903 | 31901 ft | 450 kts | 193° |
| 2026-04-11 05:37 | 28.51958 | 119.58512 | 31906 ft | 451 kts | 192° |
| 2026-04-11 05:37 | 28.45691 | 119.58122 | 31908 ft | 452 kts | 192° |
| 2026-04-11 05:38 | 28.39406 | 119.57760 | 31916 ft | 452 kts | 192° |
| 2026-04-11 05:38 | 28.33115 | 119.57431 | 31918 ft | 453 kts | 192° |
| 2026-04-11 05:39 | 28.26809 | 119.57097 | 31916 ft | 453 kts | 192° |
| 2026-04-11 05:39 | 28.20500 | 119.56744 | 31921 ft | 454 kts | 192° |
| 2026-04-11 05:40 | 28.14228 | 119.56391 | 31930 ft | 454 kts | 192° |
| 2026-04-11 05:40 | 28.07902 | 119.56066 | 31928 ft | 456 kts | 191° |
| 2026-04-11 05:41 | 28.01536 | 119.55951 | 31933 ft | 458 kts | 189° |
| 2026-04-11 05:41 | 27.95139 | 119.55918 | 31943 ft | 460 kts | 189° |
| 2026-04-11 05:42 | 27.88736 | 119.55862 | 31944 ft | 460 kts | 189° |
| 2026-04-11 05:42 | 27.82319 | 119.55824 | 31952 ft | 462 kts | 189° |
| 2026-04-11 05:43 | 27.75898 | 119.55803 | 31957 ft | 462 kts | 189° |
| 2026-04-11 05:43 | 27.69465 | 119.55766 | 31963 ft | 463 kts | 189° |
| 2026-04-11 05:44 | 27.63026 | 119.55728 | 31964 ft | 462 kts | 188° |
| 2026-04-11 05:44 | 27.56636 | 119.55690 | 31963 ft | 463 kts | 188° |
| 2026-04-11 05:45 | 27.50162 | 119.55644 | 31974 ft | 468 kts | 188° |
| 2026-04-11 05:45 | 27.43638 | 119.55607 | 31977 ft | 468 kts | 187° |
| 2026-04-11 05:46 | 27.37116 | 119.55593 | 31977 ft | 468 kts | 187° |
| 2026-04-11 05:46 | 27.30607 | 119.55593 | 31978 ft | 468 kts | 187° |
| 2026-04-11 05:47 | 27.24094 | 119.55587 | 31983 ft | 467 kts | 187° |
| 2026-04-11 05:47 | 27.17599 | 119.55545 | 31982 ft | 467 kts | 187° |
| 2026-04-11 05:48 | 27.12189 | 119.55498 | 31980 ft | 467 kts | 187° |
| 2026-04-11 05:48 | 27.05682 | 119.55450 | 31983 ft | 468 kts | 187° |
| 2026-04-11 05:49 | 26.99168 | 119.55412 | 31982 ft | 468 kts | 187° |
| 2026-04-11 05:49 | 26.92651 | 119.55376 | 31984 ft | 468 kts | 187° |
| 2026-04-11 05:50 | 26.86125 | 119.55336 | 31987 ft | 469 kts | 187° |
| 2026-04-11 05:50 | 26.79593 | 119.55291 | 31993 ft | 469 kts | 187° |
| 2026-04-11 05:51 | 26.73053 | 119.55246 | 31994 ft | 470 kts | 187° |
| 2026-04-11 05:51 | 26.66514 | 119.55203 | 31998 ft | 470 kts | 187° |
| 2026-04-11 05:52 | 26.59967 | 119.55167 | 31998 ft | 470 kts | 186° |
| 2026-04-11 05:52 | 26.53425 | 119.55131 | 32004 ft | 470 kts | 186° |
| 2026-04-11 05:53 | 26.46976 | 119.55089 | 32002 ft | 470 kts | 186° |
| 2026-04-11 05:53 | 26.42381 | 119.55056 | 31997 ft | 470 kts | 186° |
| 2026-04-11 05:54 | 26.35844 | 119.55006 | 32000 ft | 470 kts | 186° |
| 2026-04-11 05:54 | 26.29315 | 119.54933 | 31997 ft | 469 kts | 186° |
| 2026-04-11 05:55 | 26.22797 | 119.54713 | 32002 ft | 464 kts | 193° |
| 2026-04-11 05:55 | 26.16617 | 119.53001 | 32000 ft | 456 kts | 203° |
| 2026-04-11 05:56 | 26.10548 | 119.50919 | 31997 ft | 457 kts | 202° |
| 2026-04-11 05:56 | 26.04463 | 119.48848 | 31997 ft | 458 kts | 202° |
| 2026-04-11 05:57 | 25.98368 | 119.46779 | 31997 ft | 458 kts | 202° |
| 2026-04-11 05:57 | 25.92275 | 119.44709 | 31994 ft | 458 kts | 202° |
| 2026-04-11 05:58 | 25.86176 | 119.42638 | 31995 ft | 458 kts | 202° |
| 2026-04-11 05:58 | 25.80078 | 119.40567 | 31994 ft | 459 kts | 202° |
| 2026-04-11 05:59 | 25.74283 | 119.37826 | 31987 ft | 448 kts | 217° |
| 2026-04-11 05:59 | 25.69626 | 119.33373 | 31983 ft | 440 kts | 230° |
| 2026-04-11 06:00 | 25.65463 | 119.28450 | 31979 ft | 441 kts | 230° |
| 2026-04-11 06:00 | 25.61246 | 119.23506 | 31978 ft | 442 kts | 230° |
| 2026-04-11 06:01 | 25.57022 | 119.18558 | 31978 ft | 442 kts | 230° |
| 2026-04-11 06:01 | 25.52797 | 119.13612 | 31972 ft | 442 kts | 230° |
| 2026-04-11 06:02 | 25.48570 | 119.08661 | 31973 ft | 442 kts | 230° |
| 2026-04-11 06:02 | 25.44347 | 119.03710 | 31973 ft | 443 kts | 230° |
| 2026-04-11 06:03 | 25.40112 | 118.98755 | 31978 ft | 443 kts | 230° |
| 2026-04-11 06:03 | 25.35871 | 118.93817 | 31973 ft | 443 kts | 230° |
| 2026-04-11 06:04 | 25.31652 | 118.88864 | 31975 ft | 442 kts | 230° |
| 2026-04-11 06:04 | 25.27540 | 118.83882 | 31980 ft | 441 kts | 231° |
| 2026-04-11 06:05 | 25.23426 | 118.78853 | 31973 ft | 442 kts | 231° |
| 2026-04-11 06:05 | 25.19284 | 118.73838 | 31971 ft | 441 kts | 231° |
| 2026-04-11 06:06 | 25.13067 | 118.66341 | 31965 ft | 441 kts | 230° |
| 2026-04-11 06:07 | 25.08929 | 118.61348 | 31963 ft | 442 kts | 230° |
| 2026-04-11 06:07 | 25.04694 | 118.56415 | 31964 ft | 442 kts | 229° |
| 2026-04-11 06:08 | 25.00404 | 118.51547 | 31962 ft | 442 kts | 229° |
| 2026-04-11 06:08 | 24.96123 | 118.46686 | 31963 ft | 442 kts | 229° |
| 2026-04-11 06:09 | 24.91853 | 118.41800 | 31963 ft | 442 kts | 229° |
| 2026-04-11 06:09 | 24.87595 | 118.36913 | 31965 ft | 442 kts | 229° |
| 2026-04-11 06:10 | 24.83399 | 118.32110 | 31967 ft | 442 kts | 229° |
| 2026-04-11 06:10 | 24.79133 | 118.27244 | 31968 ft | 442 kts | 229° |
| 2026-04-11 06:11 | 24.74867 | 118.22382 | 31969 ft | 441 kts | 229° |
| 2026-04-11 06:11 | 24.70600 | 118.17526 | 31973 ft | 441 kts | 229° |
| 2026-04-11 06:12 | 24.66333 | 118.12668 | 31971 ft | 441 kts | 229° |
| 2026-04-11 06:12 | 24.62098 | 118.07850 | 31971 ft | 441 kts | 229° |
| 2026-04-11 06:13 | 24.57824 | 118.03005 | 31970 ft | 441 kts | 229° |
| 2026-04-11 06:13 | 24.53590 | 117.98125 | 31947 ft | 441 kts | 230° |
| 2026-04-11 06:14 | 24.49492 | 117.93127 | 31949 ft | 441 kts | 231° |
| 2026-04-11 06:14 | 24.45412 | 117.88105 | 31948 ft | 441 kts | 231° |
| 2026-04-11 06:15 | 24.41292 | 117.83105 | 31951 ft | 441 kts | 230° |
| 2026-04-11 06:15 | 24.37152 | 117.78124 | 31953 ft | 442 kts | 230° |
| 2026-04-11 06:16 | 24.33005 | 117.73154 | 31953 ft | 442 kts | 230° |
| 2026-04-11 06:16 | 24.28860 | 117.68181 | 31957 ft | 442 kts | 230° |
| 2026-04-11 06:17 | 24.24717 | 117.63203 | 31957 ft | 442 kts | 230° |
| 2026-04-11 06:17 | 24.20574 | 117.58227 | 31962 ft | 442 kts | 230° |
| 2026-04-11 06:18 | 24.16429 | 117.53259 | 31967 ft | 442 kts | 230° |
| 2026-04-11 06:18 | 24.12118 | 117.48454 | 31973 ft | 444 kts | 225° |
| 2026-04-11 06:19 | 24.07520 | 117.43940 | 31974 ft | 444 kts | 225° |
| 2026-04-11 06:19 | 24.02914 | 117.39428 | 31981 ft | 444 kts | 225° |
| 2026-04-11 06:20 | 23.98312 | 117.34925 | 31974 ft | 444 kts | 225° |
| 2026-04-11 06:20 | 23.93737 | 117.30447 | 31980 ft | 444 kts | 225° |
| 2026-04-11 06:21 | 23.89124 | 117.25943 | 31983 ft | 445 kts | 225° |
| 2026-04-11 06:21 | 23.84512 | 117.21439 | 31979 ft | 445 kts | 225° |
| 2026-04-11 06:22 | 23.79899 | 117.16938 | 31983 ft | 445 kts | 225° |
| 2026-04-11 06:22 | 23.75310 | 117.12401 | 31980 ft | 444 kts | 226° |
| 2026-04-11 06:23 | 23.71680 | 117.08387 | 31978 ft | 443 kts | 229° |
| 2026-04-11 06:25 | 23.70170 | 117.06629 | 31980 ft | 443 kts | 230° |
| 2026-04-11 06:25 | 23.65988 | 117.01681 | 31976 ft | 444 kts | 229° |
| 2026-04-11 06:26 | 23.61753 | 116.96778 | 31977 ft | 444 kts | 229° |
| 2026-04-11 06:26 | 23.57463 | 116.91918 | 31977 ft | 445 kts | 228° |
| 2026-04-11 06:27 | 23.53173 | 116.87062 | 31979 ft | 445 kts | 228° |
| 2026-04-11 06:27 | 23.48886 | 116.82202 | 31980 ft | 445 kts | 228° |
| 2026-04-11 06:28 | 23.44616 | 116.77380 | 31972 ft | 446 kts | 226° |
| 2026-04-11 06:28 | 23.39761 | 116.73139 | 31978 ft | 449 kts | 220° |
| 2026-04-11 06:29 | 23.34791 | 116.69020 | 31978 ft | 449 kts | 220° |
| 2026-04-11 06:29 | 23.29832 | 116.64894 | 31976 ft | 449 kts | 220° |
| 2026-04-11 06:30 | 23.24869 | 116.60765 | 31978 ft | 449 kts | 220° |
| 2026-04-11 06:30 | 23.19900 | 116.56639 | 31973 ft | 449 kts | 220° |
| 2026-04-11 06:31 | 23.14924 | 116.52520 | 31976 ft | 450 kts | 220° |
| 2026-04-11 06:31 | 23.09943 | 116.48406 | 31976 ft | 450 kts | 220° |
| 2026-04-11 06:32 | 23.04958 | 116.44290 | 31978 ft | 450 kts | 220° |
| 2026-04-11 06:32 | 22.99987 | 116.40133 | 31973 ft | 449 kts | 223° |
| 2026-04-11 06:33 | 22.96117 | 116.34915 | 31980 ft | 444 kts | 243° |
| 2026-04-11 06:33 | 22.94233 | 116.28580 | 31982 ft | 443 kts | 263° |
| 2026-04-11 06:34 | 22.93571 | 116.21935 | 31980 ft | 444 kts | 263° |
| 2026-04-11 06:34 | 22.92887 | 116.15270 | 31981 ft | 444 kts | 263° |
| 2026-04-11 06:35 | 22.92195 | 116.08612 | 31979 ft | 444 kts | 263° |
| 2026-04-11 06:35 | 22.91506 | 116.01946 | 31986 ft | 445 kts | 263° |
| 2026-04-11 06:36 | 22.90815 | 115.95279 | 31985 ft | 445 kts | 263° |
| 2026-04-11 06:36 | 22.90115 | 115.88618 | 31979 ft | 445 kts | 263° |
| 2026-04-11 06:37 | 22.89539 | 115.83079 | 31986 ft | 445 kts | 263° |
| 2026-04-11 06:37 | 22.88766 | 115.75328 | 31985 ft | 445 kts | 263° |
| 2026-04-11 06:38 | 22.88102 | 115.68660 | 31986 ft | 445 kts | 263° |
| 2026-04-11 06:38 | 22.87539 | 115.63066 | 31984 ft | 445 kts | 263° |
| 2026-04-11 06:39 | 22.86867 | 115.56394 | 31985 ft | 445 kts | 263° |
| 2026-04-11 06:39 | 22.86184 | 115.49721 | 31983 ft | 445 kts | 263° |
| 2026-04-11 06:40 | 22.85502 | 115.43095 | 31977 ft | 446 kts | 263° |
| 2026-04-11 06:40 | 22.84805 | 115.36411 | 31980 ft | 446 kts | 263° |
| 2026-04-11 06:41 | 22.84114 | 115.29724 | 31983 ft | 446 kts | 263° |
| 2026-04-11 06:41 | 22.83427 | 115.23046 | 31982 ft | 446 kts | 263° |
| 2026-04-11 06:42 | 22.82733 | 115.16364 | 31977 ft | 446 kts | 263° |
| 2026-04-11 06:42 | 22.82027 | 115.09670 | 31974 ft | 446 kts | 263° |
| 2026-04-11 06:43 | 22.81323 | 115.02980 | 31976 ft | 447 kts | 263° |
| 2026-04-11 06:43 | 22.80621 | 114.96291 | 31972 ft | 447 kts | 262° |
| 2026-04-11 06:44 | 22.79920 | 114.89600 | 31968 ft | 447 kts | 262° |
| 2026-04-11 06:44 | 22.79207 | 114.82909 | 31967 ft | 447 kts | 262° |
| 2026-04-11 06:45 | 22.78483 | 114.76196 | 31497 ft | 449 kts | 262° |
| 2026-04-11 06:45 | 22.78130 | 114.72880 | 31078 ft | 450 kts | 262° |
| 2026-04-11 06:45 | 22.77785 | 114.69525 | 30588 ft | 445 kts | 263° |
| 2026-04-11 06:45 | 22.77454 | 114.66218 | 30111 ft | 438 kts | 263° |
| 2026-04-11 06:46 | 22.77133 | 114.62958 | 29581 ft | 432 kts | 263° |
| 2026-04-11 06:46 | 22.76815 | 114.59750 | 29030 ft | 426 kts | 263° |
| 2026-04-11 06:46 | 22.76601 | 114.57621 | 28668 ft | 422 kts | 263° |
| 2026-04-11 06:46 | 22.76337 | 114.55022 | 28217 ft | 418 kts | 263° |
| 2026-04-11 06:47 | 22.76013 | 114.51900 | 27596 ft | 415 kts | 263° |
| 2026-04-11 06:47 | 22.75692 | 114.48805 | 26984 ft | 412 kts | 263° |
| 2026-04-11 06:47 | 22.75376 | 114.45726 | 26388 ft | 409 kts | 263° |
| 2026-04-11 06:47 | 22.75065 | 114.42671 | 25801 ft | 407 kts | 263° |
| 2026-04-11 06:48 | 22.74755 | 114.39634 | 25221 ft | 404 kts | 263° |
| 2026-04-11 06:48 | 22.74446 | 114.36626 | 24662 ft | 401 kts | 263° |
| 2026-04-11 06:48 | 22.74137 | 114.33640 | 24109 ft | 397 kts | 263° |
| 2026-04-11 06:48 | 22.73832 | 114.30674 | 23568 ft | 394 kts | 263° |
| 2026-04-11 06:49 | 22.73528 | 114.27733 | 22954 ft | 392 kts | 263° |
| 2026-04-11 06:49 | 22.73226 | 114.24813 | 22322 ft | 389 kts | 263° |
| 2026-04-11 06:49 | 22.72928 | 114.21945 | 21707 ft | 387 kts | 262° |
| 2026-04-11 06:49 | 22.72628 | 114.19062 | 21100 ft | 384 kts | 262° |
| 2026-04-11 06:50 | 22.72329 | 114.16193 | 20493 ft | 382 kts | 262° |
| 2026-04-11 06:50 | 22.72033 | 114.13344 | 19908 ft | 379 kts | 262° |
| 2026-04-11 06:50 | 22.71740 | 114.10517 | 19343 ft | 377 kts | 262° |
| 2026-04-11 06:50 | 22.71467 | 114.07798 | 18793 ft | 375 kts | 263° |
| 2026-04-11 06:51 | 22.71424 | 114.04906 | 18232 ft | 374 kts | 270° |
| 2026-04-11 06:51 | 22.71706 | 114.02107 | 17609 ft | 374 kts | 276° |
| 2026-04-11 06:51 | 22.72302 | 113.99363 | 16976 ft | 375 kts | 283° |
| 2026-04-11 06:51 | 22.73132 | 113.96686 | 16358 ft | 374 kts | 284° |
| 2026-04-11 06:52 | 22.73971 | 113.94022 | 15753 ft | 373 kts | 284° |
| 2026-04-11 06:52 | 22.74801 | 113.91365 | 15160 ft | 372 kts | 284° |
| 2026-04-11 06:52 | 22.75623 | 113.88714 | 14575 ft | 371 kts | 284° |
| 2026-04-11 06:52 | 22.76444 | 113.86069 | 14008 ft | 370 kts | 284° |
| 2026-04-11 06:53 | 22.77264 | 113.83436 | 13415 ft | 369 kts | 284° |
| 2026-04-11 06:53 | 22.78084 | 113.80806 | 12781 ft | 367 kts | 284° |
| 2026-04-11 06:53 | 22.78901 | 113.78187 | 12154 ft | 366 kts | 284° |
| 2026-04-11 06:53 | 22.79711 | 113.75585 | 11548 ft | 364 kts | 284° |
| 2026-04-11 06:54 | 22.80518 | 113.72991 | 10954 ft | 362 kts | 285° |
| 2026-04-11 06:54 | 22.81321 | 113.70415 | 10394 ft | 359 kts | 285° |
| 2026-04-11 06:54 | 22.82099 | 113.67925 | 10341 ft | 334 kts | 285° |
| 2026-04-11 06:54 | 22.82812 | 113.65655 | 10337 ft | 304 kts | 284° |
| 2026-04-11 06:55 | 22.83462 | 113.63584 | 10330 ft | 277 kts | 284° |
| 2026-04-11 06:55 | 22.84037 | 113.61682 | 10248 ft | 256 kts | 280° |
| 2026-04-11 06:55 | 22.84317 | 113.59815 | 9885 ft | 254 kts | 270° |
| 2026-04-11 06:55 | 22.84267 | 113.57902 | 9492 ft | 254 kts | 260° |
| 2026-04-11 06:56 | 22.83901 | 113.56032 | 9096 ft | 254 kts | 250° |
| 2026-04-11 06:56 | 22.83229 | 113.54269 | 8695 ft | 253 kts | 241° |
| 2026-04-11 06:56 | 22.82289 | 113.52659 | 8304 ft | 254 kts | 232° |
| 2026-04-11 06:56 | 22.81108 | 113.51241 | 7914 ft | 254 kts | 223° |
| 2026-04-11 06:57 | 22.79697 | 113.50084 | 7531 ft | 255 kts | 213° |
| 2026-04-11 06:57 | 22.78101 | 113.49236 | 7150 ft | 257 kts | 203° |
| 2026-04-11 06:57 | 22.76362 | 113.48728 | 6769 ft | 260 kts | 193° |
| 2026-04-11 06:57 | 22.74556 | 113.48573 | 6408 ft | 262 kts | 184° |
| 2026-04-11 06:58 | 22.72740 | 113.48703 | 6137 ft | 260 kts | 177° |
| 2026-04-11 06:58 | 22.70988 | 113.49095 | 5960 ft | 254 kts | 169° |
| 2026-04-11 06:58 | 22.69336 | 113.49706 | 5790 ft | 248 kts | 165° |
| 2026-04-11 06:58 | 22.67746 | 113.50348 | 5619 ft | 239 kts | 165° |
| 2026-04-11 06:59 | 22.66212 | 113.50965 | 5451 ft | 232 kts | 165° |
| 2026-04-11 06:59 | 22.64718 | 113.51566 | 5282 ft | 226 kts | 165° |
| 2026-04-11 06:59 | 22.63248 | 113.52153 | 5117 ft | 225 kts | 165° |
| 2026-04-11 06:59 | 22.61881 | 113.52995 | 4912 ft | 232 kts | 142° |
| 2026-04-11 07:00 | 22.61012 | 113.54499 | 4685 ft | 244 kts | 110° |
| 2026-04-11 07:00 | 22.60997 | 113.56358 | 4463 ft | 255 kts | 76° |
| 2026-04-11 07:00 | 22.61923 | 113.57975 | 4242 ft | 257 kts | 40° |
| 2026-04-11 07:00 | 22.63485 | 113.58852 | 4027 ft | 254 kts | 16° |
| 2026-04-11 07:01 | 22.65161 | 113.59453 | 3810 ft | 253 kts | 17° |
| 2026-04-11 07:01 | 22.66830 | 113.60045 | 3592 ft | 252 kts | 17° |
| 2026-04-11 07:01 | 22.68492 | 113.60635 | 3371 ft | 251 kts | 18° |
| 2026-04-11 07:01 | 22.70143 | 113.61225 | 3160 ft | 249 kts | 18° |
| 2026-04-11 07:02 | 22.71758 | 113.61807 | 3031 ft | 246 kts | 19° |
| 2026-04-11 07:02 | 22.73378 | 113.62393 | 2995 ft | 246 kts | 19° |
| 2026-04-11 07:02 | 22.75007 | 113.62985 | 2998 ft | 247 kts | 19° |
| 2026-04-11 07:02 | 22.76640 | 113.63579 | 3001 ft | 248 kts | 18° |
| 2026-04-11 07:03 | 22.78276 | 113.64173 | 2996 ft | 248 kts | 18° |
| 2026-04-11 07:03 | 22.79912 | 113.64766 | 2999 ft | 248 kts | 18° |
| 2026-04-11 07:03 | 22.81534 | 113.65386 | 2984 ft | 247 kts | 26° |
| 2026-04-11 07:03 | 22.82813 | 113.66560 | 2998 ft | 236 kts | 60° |
| 2026-04-11 07:04 | 22.83318 | 113.68157 | 2994 ft | 218 kts | 93° |
| 2026-04-11 07:04 | 22.83076 | 113.69704 | 2995 ft | 202 kts | 121° |
| 2026-04-11 07:04 | 22.82275 | 113.70890 | 3004 ft | 193 kts | 146° |
| 2026-04-11 07:04 | 22.81139 | 113.71623 | 3005 ft | 191 kts | 157° |
| 2026-04-11 07:05 | 22.79942 | 113.72276 | 2997 ft | 193 kts | 157° |
| 2026-04-11 07:05 | 22.78755 | 113.72928 | 2851 ft | 188 kts | 157° |
| 2026-04-11 07:05 | 22.77610 | 113.73557 | 2625 ft | 182 kts | 157° |
| 2026-04-11 07:05 | 22.76497 | 113.74169 | 2399 ft | 177 kts | 157° |
| 2026-04-11 07:06 | 22.75418 | 113.74761 | 2178 ft | 169 kts | 157° |
| 2026-04-11 07:06 | 22.74412 | 113.75314 | 1962 ft | 156 kts | 156° |
| 2026-04-11 07:06 | 22.73482 | 113.75825 | 1790 ft | 142 kts | 157° |
| 2026-04-11 07:06 | 22.72600 | 113.76309 | 1599 ft | 140 kts | 159° |
| 2026-04-11 07:07 | 22.71738 | 113.76781 | 1420 ft | 138 kts | 158° |
| 2026-04-11 07:07 | 22.70884 | 113.77242 | 1226 ft | 137 kts | 158° |
| 2026-04-11 07:07 | 22.70035 | 113.77707 | 1052 ft | 136 kts | 156° |
| 2026-04-11 07:07 | 22.69195 | 113.78195 | 928 ft | 137 kts | 156° |
| 2026-04-11 07:08 | 22.68342 | 113.78635 | 745 ft | 136 kts | 157° |
| 2026-04-11 07:08 | 22.67489 | 113.79103 | 561 ft | 138 kts | 154° |
| 2026-04-11 07:08 | 22.66639 | 113.79564 | 357 ft | 140 kts | 152° |
| 2026-04-11 07:08 | 22.65782 | 113.80037 | 173 ft | 136 kts | 151° |
| 2026-04-11 07:09 | 22.64937 | 113.80507 | 24 ft | 135 kts | 154° |
| 2026-04-11 07:09 | 22.64225 | 113.80897 | 15 ft | 82 kts | 153° |
| 2026-04-11 07:09 | 22.63969 | 113.81030 | 15 ft | 14 kts | 162° |
| 2026-04-11 07:09 | 22.63874 | 113.81053 | 15 ft | 14 kts | 175° |
| 2026-04-11 07:10 | 22.63681 | 113.81017 | 15 ft | 15 kts | 238° |
| 2026-04-11 07:10 | 22.63634 | 113.80912 | 15 ft | 16 kts | 249° |
| 2026-04-11 07:10 | 22.63603 | 113.80836 | 15 ft | 8 kts | 243° |
| 2026-04-11 07:11 | 22.63571 | 113.80804 | 15 ft | 6 kts | 196° |
| 2026-04-11 07:11 | 22.63532 | 113.80797 | 15 ft | 6 kts | 185° |
| 2026-04-11 07:11 | 22.63497 | 113.80792 | 15 ft | 3 kts | 188° |
| 2026-04-11 07:11 | 22.63493 | 113.80791 | 15 ft | 0 kts | 188° |